www.cux-wetter.de
Wetterdaten: Freitag, 05.07.2013
Datum Zeit Temp. A. Feuchte A. Luftdruck Regen Wind Richtung Richtung Sonnenschein Solar Taupunkt Windchill Windben
05.07.2013 00:15 16,8 C 84 % 1021,5 hPa 0,0 l/m 13,9 km/h (3 Bft) NW 305 0 min 0 W/m 14,1 C 13,7 C 13,9 km/h (3 Bft)
05.07.2013 00:29 16,9 C 84 % 1021,5 hPa 0,0 l/m 20,0 km/h (4 Bft) NW 315 0 min 0 W/m 14,2 C 12,2 C 20,0 km/h (4 Bft)
05.07.2013 00:44 16,8 C 85 % 1022,5 hPa 0,0 l/m 18,7 km/h (3 Bft) NW 310 0 min 0 W/m 14,3 C 12,4 C 18,7 km/h (3 Bft)
05.07.2013 01:00 16,8 C 85 % 1022,5 hPa 0,0 l/m 12,3 km/h (2 Bft) W 275 0 min 0 W/m 14,3 C 14,2 C 12,3 km/h (2 Bft)
05.07.2013 01:15 16,8 C 86 % 1022,5 hPa 0,0 l/m 13,3 km/h (3 Bft) W 275 0 min 0 W/m 14,4 C 13,9 C 13,3 km/h (3 Bft)
05.07.2013 01:29 16,8 C 86 % 1022,5 hPa 0,0 l/m 10,1 km/h (2 Bft) W 275 0 min 0 W/m 14,4 C 15,1 C 10,1 km/h (2 Bft)
05.07.2013 01:44 16,8 C 86 % 1022,5 hPa 0,0 l/m 8,9 km/h (2 Bft) W-NW 285 0 min 0 W/m 14,4 C 15,6 C 8,9 km/h (2 Bft)
05.07.2013 02:00 16,8 C 86 % 1022,5 hPa 0,0 l/m 10,7 km/h (2 Bft) NW 305 0 min 0 W/m 14,4 C 14,8 C 10,7 km/h (2 Bft)
05.07.2013 02:15 16,8 C 86 % 1022,5 hPa 0,0 l/m 11,3 km/h (2 Bft) W 270 0 min 0 W/m 14,4 C 14,6 C 11,3 km/h (2 Bft)
05.07.2013 02:30 16,7 C 86 % 1022,5 hPa 0,0 l/m 10,4 km/h (2 Bft) W 275 0 min 0 W/m 14,3 C 14,8 C 10,4 km/h (2 Bft)
05.07.2013 02:44 16,6 C 86 % 1022,5 hPa 0,0 l/m 8,8 km/h (2 Bft) W 270 0 min 0 W/m 14,2 C 15,4 C 8,8 km/h (2 Bft)
05.07.2013 02:59 16,6 C 86 % 1022,5 hPa 0,0 l/m 10,1 km/h (2 Bft) W-NW 295 0 min 0 W/m 14,2 C 14,8 C 10,1 km/h (2 Bft)
05.07.2013 03:15 16,6 C 86 % 1022,5 hPa 0,0 l/m 8,7 km/h (2 Bft) W-NW 295 0 min 0 W/m 14,2 C 15,5 C 8,7 km/h (2 Bft)
05.07.2013 03:30 16,7 C 86 % 1022,5 hPa 0,0 l/m 10,2 km/h (2 Bft) W 280 0 min 0 W/m 14,3 C 14,9 C 10,2 km/h (2 Bft)
05.07.2013 03:44 16,8 C 86 % 1022,5 hPa 0,0 l/m 7,4 km/h (2 Bft) W 260 0 min 0 W/m 14,4 C 16,3 C 7,4 km/h (2 Bft)
05.07.2013 03:59 16,6 C 86 % 1022,5 hPa 0,0 l/m 5,9 km/h (2 Bft) W-SW 250 0 min 0 W/m 14,2 C 16,6 C 5,9 km/h (2 Bft)
05.07.2013 04:15 16,6 C 86 % 1022,5 hPa 0,0 l/m 5,6 km/h (2 Bft) W 265 0 min 0 W/m 14,2 C 16,6 C 5,6 km/h (2 Bft)
05.07.2013 04:30 16,6 C 87 % 1023,5 hPa 0,0 l/m 7,2 km/h (2 Bft) W 275 0 min 0 W/m 14,4 C 16,2 C 7,2 km/h (2 Bft)
05.07.2013 04:44 16,6 C 87 % 1023,5 hPa 0,0 l/m 11,1 km/h (2 Bft) W-SW 255 0 min 0 W/m 14,4 C 14,4 C 11,1 km/h (2 Bft)
05.07.2013 04:59 16,6 C 87 % 1023,5 hPa 0,0 l/m 8,0 km/h (2 Bft) W 270 0 min 0 W/m 14,4 C 15,8 C 8,0 km/h (2 Bft)
05.07.2013 05:15 16,6 C 88 % 1023,5 hPa 0,0 l/m 9,9 km/h (2 Bft) W-SW 255 0 min 0 W/m 14,6 C 14,9 C 9,9 km/h (2 Bft)
05.07.2013 05:30 16,6 C 88 % 1023,5 hPa 0,0 l/m 7,6 km/h (2 Bft) W-SW 250 0 min 0 W/m 14,6 C 16,0 C 7,6 km/h (2 Bft)
05.07.2013 05:44 16,5 C 88 % 1023,5 hPa 0,0 l/m 7,9 km/h (2 Bft) W-SW 255 0 min 0 W/m 14,5 C 15,7 C 7,9 km/h (2 Bft)
05.07.2013 05:59 16,4 C 88 % 1023,5 hPa 0,0 l/m 9,2 km/h (2 Bft) W 260 0 min 0 W/m 14,4 C 15,0 C 9,2 km/h (2 Bft)
05.07.2013 06:15 16,5 C 88 % 1023,5 hPa 0,0 l/m 9,0 km/h (2 Bft) W-SW 255 0 min 0 W/m 14,5 C 15,2 C 9,0 km/h (2 Bft)
05.07.2013 06:30 16,6 C 89 % 1023,5 hPa 0,0 l/m 10,1 km/h (2 Bft) W 260 0 min 0 W/m 14,8 C 14,8 C 10,1 km/h (2 Bft)
05.07.2013 06:45 16,7 C 89 % 1023,5 hPa 0,0 l/m 10,8 km/h (2 Bft) W 260 0 min 0 W/m 14,9 C 14,7 C 10,8 km/h (2 Bft)
05.07.2013 06:59 16,9 C 89 % 1023,5 hPa 0,0 l/m 11,6 km/h (2 Bft) W 260 0 min 0 W/m 15,1 C 14,6 C 11,6 km/h (2 Bft)
05.07.2013 07:15 17,0 C 89 % 1023,5 hPa 0,0 l/m 13,3 km/h (3 Bft) W 275 0 min 0 W/m 15,2 C 14,1 C 13,3 km/h (3 Bft)
05.07.2013 07:29 17,2 C 88 % 1024,5 hPa 0,0 l/m 17,0 km/h (3 Bft) W 265 0 min 0 W/m 15,2 C 13,3 C 17,0 km/h (3 Bft)
05.07.2013 07:44 17,2 C 88 % 1024,5 hPa 0,0 l/m 14,8 km/h (3 Bft) W 265 0 min 0 W/m 15,2 C 13,9 C 14,8 km/h (3 Bft)
05.07.2013 08:00 17,2 C 88 % 1024,5 hPa 0,0 l/m 16,1 km/h (3 Bft) W-NW 300 0 min 0 W/m 15,2 C 13,5 C 16,1 km/h (3 Bft)
05.07.2013 08:15 17,2 C 88 % 1024,5 hPa 0,0 l/m 18,1 km/h (3 Bft) NW 310 0 min 0 W/m 15,2 C 13,0 C 18,1 km/h (3 Bft)
05.07.2013 08:29 17,2 C 88 % 1024,5 hPa 0,0 l/m 17,7 km/h (3 Bft) NW 305 0 min 0 W/m 15,2 C 13,1 C 17,7 km/h (3 Bft)
05.07.2013 08:45 17,1 C 88 % 1025,5 hPa 0,0 l/m 23,7 km/h (4 Bft) NW 305 0 min 0 W/m 15,1 C 11,7 C 23,7 km/h (4 Bft)
05.07.2013 09:00 17,4 C 88 % 1025,5 hPa 0,0 l/m 14,0 km/h (3 Bft) W-NW 295 0 min 0 W/m 15,4 C 14,4 C 14,0 km/h (3 Bft)
05.07.2013 09:14 17,8 C 88 % 1024,5 hPa 0,0 l/m 17,3 km/h (3 Bft) W-NW 295 0 min 0 W/m 15,8 C 14,0 C 17,3 km/h (3 Bft)
05.07.2013 09:29 18,0 C 87 % 1025,5 hPa 0,0 l/m 17,5 km/h (3 Bft) NW 305 0 min 0 W/m 15,8 C 14,2 C 17,5 km/h (3 Bft)
05.07.2013 09:45 17,9 C 86 % 1025,5 hPa 0,0 l/m 17,7 km/h (3 Bft) W-NW 300 0 min 0 W/m 15,5 C 14,0 C 17,7 km/h (3 Bft)
05.07.2013 10:00 17,7 C 86 % 1025,5 hPa 0,0 l/m 16,1 km/h (3 Bft) W-NW 295 0 min 0 W/m 15,3 C 14,2 C 16,1 km/h (3 Bft)
05.07.2013 10:14 17,7 C 87 % 1025,5 hPa 0,0 l/m 19,5 km/h (3 Bft) NW 310 0 min 0 W/m 15,5 C 13,3 C 19,5 km/h (3 Bft)
05.07.2013 10:29 17,7 C 86 % 1025,5 hPa 0,0 l/m 18,0 km/h (3 Bft) NW 305 0 min 0 W/m 15,3 C 13,7 C 18,0 km/h (3 Bft)
05.07.2013 10:45 17,7 C 86 % 1025,5 hPa 0,0 l/m 19,3 km/h (3 Bft) NW 320 0 min 0 W/m 15,3 C 13,4 C 19,3 km/h (3 Bft)
05.07.2013 11:00 17,9 C 86 % 1025,5 hPa 0,0 l/m 16,7 km/h (3 Bft) N-NW 330 0 min 0 W/m 15,5 C 14,3 C 16,7 km/h (3 Bft)
05.07.2013 11:14 18,2 C 84 % 1026,5 hPa 0,0 l/m 16,2 km/h (3 Bft) NW 320 0 min 0 W/m 15,4 C 14,8 C 16,2 km/h (3 Bft)
05.07.2013 11:29 18,4 C 83 % 1026,5 hPa 0,0 l/m 17,6 km/h (3 Bft) W-NW 295 0 min 0 W/m 15,5 C 14,7 C 17,6 km/h (3 Bft)
05.07.2013 11:45 18,7 C 82 % 1026,5 hPa 0,0 l/m 18,8 km/h (3 Bft) W-NW 295 0 min 0 W/m 15,6 C 14,8 C 18,8 km/h (3 Bft)
05.07.2013 12:00 19,2 C 81 % 1026,5 hPa 0,0 l/m 20,1 km/h (4 Bft) NW 310 0 min 0 W/m 15,9 C 15,2 C 20,1 km/h (4 Bft)
05.07.2013 12:15 19,1 C 80 % 1026,5 hPa 0,0 l/m 19,3 km/h (3 Bft) NW 315 0 min 0 W/m 15,6 C 15,2 C 19,3 km/h (3 Bft)
05.07.2013 12:30 18,9 C 79 % 1026,5 hPa 0,0 l/m 13,3 km/h (3 Bft) NW 305 0 min 0 W/m 15,2 C 16,4 C 13,3 km/h (3 Bft)
05.07.2013 12:45 18,9 C 79 % 1026,5 hPa 0,0 l/m 15,3 km/h (3 Bft) NW 325 0 min 0 W/m 15,2 C 15,8 C 15,3 km/h (3 Bft)
05.07.2013 13:00 19,2 C 79 % 1027,5 hPa 0,0 l/m 14,1 km/h (3 Bft) N-NW 340 0 min 0 W/m 15,5 C 16,5 C 14,1 km/h (3 Bft)
05.07.2013 13:15 19,3 C 79 % 1027,5 hPa 0,0 l/m 12,2 km/h (2 Bft) N 355 0 min 0 W/m 15,6 C 17,2 C 12,2 km/h (2 Bft)
05.07.2013 13:30 19,9 C 77 % 1027,5 hPa 0,0 l/m 11,6 km/h (2 Bft) N-NO 15 0 min 0 W/m 15,7 C 18,0 C 11,6 km/h (2 Bft)
05.07.2013 13:45 20,4 C 73 % 1027,5 hPa 0,0 l/m 17,3 km/h (3 Bft) N-NW 330 0 min 0 W/m 15,4 C 17,2 C 17,3 km/h (3 Bft)
05.07.2013 14:00 20,7 C 72 % 1027,5 hPa 0,0 l/m 16,5 km/h (3 Bft) N-NW 340 0 min 0 W/m 15,5 C 17,8 C 16,5 km/h (3 Bft)
05.07.2013 14:15 21,0 C 67 % 1027,5 hPa 0,0 l/m 17,9 km/h (3 Bft) NO 50 0 min 0 W/m 14,6 C 17,9 C 17,9 km/h (3 Bft)
05.07.2013 14:30 20,8 C 64 % 1027,5 hPa 0,0 l/m 18,1 km/h (3 Bft) NO 55 0 min 0 W/m 13,7 C 17,6 C 18,1 km/h (3 Bft)
05.07.2013 14:45 20,7 C 65 % 1027,5 hPa 0,0 l/m 17,0 km/h (3 Bft) N-NO 15 0 min 0 W/m 13,9 C 17,7 C 17,0 km/h (3 Bft)
05.07.2013 15:00 20,8 C 64 % 1027,5 hPa 0,0 l/m 15,8 km/h (3 Bft) O-NO 60 0 min 0 W/m 13,7 C 18,0 C 15,8 km/h (3 Bft)
05.07.2013 15:15 20,6 C 63 % 1027,5 hPa 0,0 l/m 18,6 km/h (3 Bft) N-NO 25 0 min 0 W/m 13,3 C 17,2 C 18,6 km/h (3 Bft)
05.07.2013 15:30 20,6 C 63 % 1028,5 hPa 0,0 l/m 16,7 km/h (3 Bft) N 5 0 min 0 W/m 13,3 C 17,6 C 16,7 km/h (3 Bft)
05.07.2013 15:45 20,6 C 63 % 1028,5 hPa 0,0 l/m 19,3 km/h (3 Bft) O 90 0 min 0 W/m 13,3 C 17,1 C 19,3 km/h (3 Bft)
05.07.2013 16:00 20,6 C 63 % 1028,5 hPa 0,0 l/m 20,8 km/h (4 Bft) NO 40 0 min 0 W/m 13,3 C 16,8 C 20,8 km/h (4 Bft)
05.07.2013 16:15 20,3 C 63 % 1028,5 hPa 0,0 l/m 22,6 km/h (4 Bft) NO 35 0 min 0 W/m 13,0 C 16,2 C 22,6 km/h (4 Bft)
05.07.2013 16:30 20,4 C 63 % 1028,5 hPa 0,0 l/m 18,5 km/h (3 Bft) O-NO 75 0 min 0 W/m 13,1 C 17,0 C 18,5 km/h (3 Bft)
05.07.2013 16:45 20,4 C 62 % 1028,5 hPa 0,0 l/m 20,6 km/h (4 Bft) N 10 0 min 0 W/m 12,9 C 16,6 C 20,6 km/h (4 Bft)
05.07.2013 17:00 20,3 C 62 % 1028,5 hPa 0,0 l/m 18,6 km/h (3 Bft) O-NO 75 0 min 0 W/m 12,8 C 16,9 C 18,6 km/h (3 Bft)
05.07.2013 17:15 20,0 C 60 % 1028,5 hPa 0,0 l/m 19,3 km/h (3 Bft) NO 40 0 min 0 W/m 12,0 C 16,3 C 19,3 km/h (3 Bft)
05.07.2013 17:30 19,9 C 60 % 1028,5 hPa 0,0 l/m 17,0 km/h (3 Bft) NO 45 0 min 0 W/m 11,9 C 16,7 C 17,0 km/h (3 Bft)
05.07.2013 17:45 19,9 C 62 % 1028,5 hPa 0,0 l/m 18,9 km/h (3 Bft) NO 35 0 min 0 W/m 12,4 C 16,3 C 18,9 km/h (3 Bft)
05.07.2013 18:00 19,9 C 60 % 1028,5 hPa 0,0 l/m 17,4 km/h (3 Bft) O-NO 60 0 min 0 W/m 11,9 C 16,6 C 17,4 km/h (3 Bft)
05.07.2013 18:15 19,5 C 60 % 1028,5 hPa 0,0 l/m 19,1 km/h (3 Bft) NO 55 0 min 0 W/m 11,5 C 15,7 C 19,1 km/h (3 Bft)
05.07.2013 18:30 19,3 C 60 % 1028,5 hPa 0,0 l/m 18,3 km/h (3 Bft) O-NO 70 0 min 0 W/m 11,3 C 15,6 C 18,3 km/h (3 Bft)
05.07.2013 18:45 19,1 C 62 % 1028,5 hPa 0,0 l/m 16,2 km/h (3 Bft) O 80 0 min 0 W/m 11,6 C 15,9 C 16,2 km/h (3 Bft)
05.07.2013 19:00 18,8 C 60 % 1028,5 hPa 0,0 l/m 16,4 km/h (3 Bft) N-NO 20 0 min 0 W/m 10,9 C 15,4 C 16,4 km/h (3 Bft)
05.07.2013 19:15 18,5 C 61 % 1028,5 hPa 0,0 l/m 17,6 km/h (3 Bft) NO 35 0 min 0 W/m 10,8 C 14,8 C 17,6 km/h (3 Bft)
05.07.2013 19:30 18,2 C 63 % 1028,5 hPa 0,0 l/m 15,1 km/h (3 Bft) N 355 0 min 0 W/m 11,0 C 15,0 C 15,1 km/h (3 Bft)
05.07.2013 19:45 17,9 C 64 % 1028,5 hPa 0,0 l/m 16,3 km/h (3 Bft) N-NO 30 0 min 0 W/m 11,0 C 14,4 C 16,3 km/h (3 Bft)
05.07.2013 20:00 17,6 C 66 % 1028,5 hPa 0,0 l/m 17,6 km/h (3 Bft) NO 55 0 min 0 W/m 11,2 C 13,7 C 17,6 km/h (3 Bft)
05.07.2013 20:15 17,4 C 67 % 1028,5 hPa 0,0 l/m 15,3 km/h (3 Bft) NO 55 0 min 0 W/m 11,2 C 14,0 C 15,3 km/h (3 Bft)
05.07.2013 20:30 17,3 C 68 % 1029,5 hPa 0,0 l/m 14,5 km/h (3 Bft) N-NO 30 0 min 0 W/m 11,3 C 14,1 C 14,5 km/h (3 Bft)
05.07.2013 20:45 17,0 C 67 % 1029,5 hPa 0,0 l/m 14,2 km/h (3 Bft) N 10 0 min 0 W/m 10,8 C 13,9 C 14,2 km/h (3 Bft)
05.07.2013 21:00 16,8 C 68 % 1029,5 hPa 0,0 l/m 13,3 km/h (3 Bft) O 80 0 min 0 W/m 10,9 C 13,9 C 13,3 km/h (3 Bft)
05.07.2013 21:15 16,6 C 67 % 1029,5 hPa 0,0 l/m 13,0 km/h (3 Bft) NO 35 0 min 0 W/m 10,4 C 13,8 C 13,0 km/h (3 Bft)
05.07.2013 21:30 16,5 C 68 % 1029,5 hPa 0,0 l/m 13,6 km/h (3 Bft) N 5 0 min 0 W/m 10,6 C 13,4 C 13,6 km/h (3 Bft)
05.07.2013 21:45 16,2 C 67 % 1029,5 hPa 0,0 l/m 11,9 km/h (2 Bft) NW 320 0 min 0 W/m 10,1 C 13,7 C 11,9 km/h (2 Bft)
05.07.2013 22:00 16,0 C 69 % 1029,5 hPa 0,0 l/m 12,8 km/h (3 Bft) NO 35 0 min 0 W/m 10,3 C 13,1 C 12,8 km/h (3 Bft)
05.07.2013 22:15 15,9 C 69 % 1029,5 hPa 0,0 l/m 11,0 km/h (2 Bft) N 350 0 min 0 W/m 10,2 C 13,7 C 11,0 km/h (2 Bft)
05.07.2013 22:30 15,8 C 69 % 1029,5 hPa 0,0 l/m 9,8 km/h (2 Bft) N-NO 15 0 min 0 W/m 10,1 C 14,1 C 9,8 km/h (2 Bft)
05.07.2013 22:45 15,7 C 70 % 1029,5 hPa 0,0 l/m 11,0 km/h (2 Bft) N-NO 15 0 min 0 W/m 10,2 C 13,5 C 11,0 km/h (2 Bft)
05.07.2013 23:00 15,6 C 71 % 1030,5 hPa 0,0 l/m 15,4 km/h (3 Bft) N 355 0 min 0 W/m 10,4 C 11,8 C 15,4 km/h (3 Bft)
05.07.2013 23:15 15,5 C 71 % 1029,5 hPa 0,0 l/m 12,1 km/h (2 Bft) N 350 0 min 0 W/m 10,3 C 12,8 C 12,1 km/h (2 Bft)
05.07.2013 23:30 15,5 C 72 % 1030,5 hPa 0,0 l/m 14,5 km/h (3 Bft) N 350 0 min 0 W/m 10,5 C 12,0 C 14,5 km/h (3 Bft)
05.07.2013 23:45 15,4 C 73 % 1030,5 hPa 0,0 l/m 10,0 km/h (2 Bft) N 350 0 min 0 W/m 10,6 C 13,6 C 10,0 km/h (2 Bft)
_ Min-Zeit 23:45 17:15 00:15 - 04:15 - - - - 21:45 08:45 04:15
Minimum _ 15,4 C 60 % 1021,5 hPa - 5,6 km/h (2 Bft) - - - - 10,1 C 11,7 C 5,6 km/h (2 Bft)
_ Max-Zeit 14:15 06:30 23:00 00:15 08:45 - - 00:15 00:15 12:00 15:00 08:45
Maximum _ 21,0 C 89 % 1030,5 hPa 0,0 l/m 23,7 km/h
NW (4 Bft)
- - 0 min 0 W/m 15,9 C 18,0 C 23,7 km/h
NW (4 Bft)
Durchschnitt _ 17,9 C 77 % 1026,2 hPa #0,0 l/m 14,6 km/h (3 Bft) W - #0 min. 0 W/m 13,6 C 15,0 C 14,6 km/h (3 Bft)
copyright by Holger Just